createdAt,value
2022-09-22T00:02:05.677Z,99.90
2022-09-22T00:04:33.815Z,99.90
2022-09-22T00:07:01.947Z,99.90
2022-09-22T00:09:30.008Z,99.90
2022-09-22T00:11:58.224Z,99.90
2022-09-22T00:14:28.216Z,99.90
2022-09-22T00:17:00.350Z,99.90
2022-09-22T00:19:30.384Z,99.90
2022-09-22T00:21:58.930Z,99.90
2022-09-22T00:24:28.241Z,99.90
2022-09-22T00:26:57.916Z,99.90
2022-09-22T00:29:27.423Z,99.90
2022-09-22T00:31:57.599Z,99.90
2022-09-22T00:34:27.845Z,99.90
2022-09-22T00:36:56.487Z,99.90
2022-09-22T00:39:24.549Z,99.90
2022-09-22T00:41:54.539Z,99.90
2022-09-22T00:44:38.425Z,99.90
2022-09-22T00:47:30.343Z,99.90
2022-09-22T00:50:04.548Z,99.90
2022-09-22T00:52:34.148Z,99.90
2022-09-22T00:55:05.344Z,99.90
2022-09-22T00:57:36.414Z,99.90
2022-09-22T01:00:08.462Z,99.90
2022-09-22T01:02:38.284Z,99.90
2022-09-22T01:05:07.859Z,99.90
2022-09-22T01:07:37.152Z,99.90
2022-09-22T01:10:05.695Z,99.90
2022-09-22T01:12:33.763Z,99.90
2022-09-22T01:15:12.465Z,99.90
2022-09-22T01:17:56.966Z,99.90
2022-09-22T01:21:08.661Z,99.90
2022-09-22T01:24:08.857Z,99.90
2022-09-22T01:27:03.820Z,99.90
2022-09-22T01:29:42.314Z,99.90
2022-09-22T01:32:19.776Z,99.90
2022-09-22T01:34:55.827Z,99.90
2022-09-22T01:37:28.313Z,99.90
2022-09-22T01:40:01.111Z,99.90
2022-09-22T01:42:37.048Z,99.90
2022-09-22T01:45:09.782Z,99.90
2022-09-22T01:47:42.519Z,99.90
2022-09-22T01:50:16.771Z,99.90
2022-09-22T01:52:45.386Z,99.90
2022-09-22T01:55:17.623Z,99.90
2022-09-22T01:57:52.561Z,99.90
2022-09-22T02:00:23.123Z,99.90
2022-09-22T02:02:57.020Z,99.90
2022-09-22T02:05:31.173Z,99.90
2022-09-22T02:08:02.382Z,99.90
2022-09-22T02:10:36.195Z,99.90
2022-09-22T02:13:04.592Z,99.90
2022-09-22T02:15:50.498Z,99.90
2022-09-22T02:18:26.276Z,99.90
2022-09-22T02:20:54.341Z,99.90
2022-09-22T02:23:22.567Z,99.90
2022-09-22T02:25:51.470Z,99.90
2022-09-22T02:28:21.583Z,99.90
2022-09-22T02:31:17.608Z,99.90
2022-09-22T02:33:42.801Z,99.90
2022-09-22T02:36:30.251Z,99.90
2022-09-22T02:39:05.824Z,99.90
2022-09-22T02:41:40.132Z,99.90
2022-09-22T02:44:08.657Z,99.90
2022-09-22T02:46:42.418Z,99.90
2022-09-22T02:49:15.794Z,99.90
2022-09-22T02:51:46.676Z,99.90
2022-09-22T02:54:14.958Z,99.90
2022-09-22T02:56:43.292Z,99.90
2022-09-22T02:59:11.484Z,99.90
2022-09-22T03:01:40.247Z,99.90
2022-09-22T03:04:08.340Z,99.90
2022-09-22T03:06:38.564Z,99.90
2022-09-22T03:09:07.031Z,99.90
2022-09-22T03:11:35.126Z,99.90
2022-09-22T03:14:03.349Z,99.90
2022-09-22T03:16:31.517Z,99.90
2022-09-22T03:18:59.768Z,99.90
2022-09-22T03:21:27.914Z,99.90
2022-09-22T03:23:57.392Z,99.90
2022-09-22T03:26:25.690Z,99.90
2022-09-22T03:28:53.688Z,99.90
2022-09-22T03:31:21.935Z,99.90
2022-09-22T03:33:52.750Z,99.90
2022-09-22T03:36:21.537Z,99.90
2022-09-22T03:38:49.695Z,99.90
2022-09-22T03:41:19.652Z,99.90
2022-09-22T03:43:47.717Z,99.90
2022-09-22T03:46:16.030Z,99.90
2022-09-22T03:48:45.316Z,99.90
2022-09-22T03:51:13.603Z,99.90
2022-09-22T03:53:41.750Z,99.90
2022-09-22T03:56:12.474Z,99.90
2022-09-22T03:58:42.948Z,99.90
2022-09-22T04:01:11.573Z,99.90
2022-09-22T04:03:41.083Z,99.90
2022-09-22T04:06:09.419Z,99.90
2022-09-22T04:08:37.977Z,99.90
2022-09-22T04:11:07.417Z,99.90
2022-09-22T04:13:36.035Z,99.90
2022-09-22T04:16:06.216Z,99.90
2022-09-22T04:18:34.848Z,99.90
2022-09-22T04:21:03.024Z,99.90
2022-09-22T04:23:31.025Z,99.90
2022-09-22T04:25:59.292Z,99.90
2022-09-22T04:28:27.390Z,99.90
2022-09-22T04:30:55.832Z,99.90
2022-09-22T04:33:26.155Z,99.90
2022-09-22T04:35:56.283Z,99.90
2022-09-22T04:38:24.366Z,99.90
2022-09-22T04:40:53.964Z,99.90
2022-09-22T04:43:22.006Z,99.90
2022-09-22T04:45:50.229Z,99.90
2022-09-22T04:48:18.389Z,99.90
2022-09-22T04:50:48.428Z,99.90
2022-09-22T04:53:16.978Z,99.90
2022-09-22T04:55:45.146Z,99.90
2022-09-22T04:58:14.069Z,99.90
2022-09-22T05:00:42.315Z,99.90
2022-09-22T05:03:12.333Z,99.90
2022-09-22T05:05:40.668Z,99.90
2022-09-22T05:08:10.326Z,99.90
2022-09-22T05:10:38.425Z,99.90
2022-09-22T05:13:06.870Z,99.90
2022-09-22T05:15:34.954Z,99.90
2022-09-22T05:18:03.290Z,99.90
2022-09-22T05:20:31.323Z,99.90
2022-09-22T05:22:59.486Z,99.90
2022-09-22T05:25:28.975Z,99.90
2022-09-22T05:27:57.926Z,99.90
2022-09-22T05:30:27.670Z,99.90
2022-09-22T05:32:55.800Z,99.90
2022-09-22T05:35:25.783Z,99.90
2022-09-22T05:37:54.705Z,99.90
2022-09-22T05:40:25.671Z,99.90
2022-09-22T05:42:55.641Z,99.90
2022-09-22T05:45:24.104Z,99.90
2022-09-22T05:47:53.331Z,99.90
2022-09-22T05:50:23.680Z,99.90
2022-09-22T05:52:52.140Z,99.90
2022-09-22T05:55:20.329Z,99.90
2022-09-22T05:57:48.629Z,99.90
2022-09-22T06:00:18.296Z,99.90
2022-09-22T06:02:46.491Z,99.90
2022-09-22T06:05:17.935Z,99.90
2022-09-22T06:07:47.808Z,99.90
2022-09-22T06:10:15.929Z,99.90
2022-09-22T06:12:44.149Z,99.90
2022-09-22T06:15:12.199Z,99.90
2022-09-22T06:17:41.648Z,99.90
2022-09-22T06:20:10.176Z,99.90
2022-09-22T06:22:38.251Z,99.90
2022-09-22T06:25:09.243Z,99.90
2022-09-22T06:27:37.284Z,99.90
2022-09-22T06:30:06.121Z,99.90
2022-09-22T06:32:34.278Z,99.90
2022-09-22T06:35:03.969Z,99.90
2022-09-22T06:37:32.562Z,99.90
2022-09-22T06:40:00.897Z,99.90
2022-09-22T06:42:28.920Z,99.90
2022-09-22T06:44:57.747Z,99.90
2022-09-22T06:47:25.993Z,99.90
2022-09-22T06:49:54.412Z,99.90
2022-09-22T06:52:23.860Z,99.90
2022-09-22T06:54:54.032Z,99.90
2022-09-22T06:57:22.212Z,99.90
2022-09-22T06:59:50.423Z,99.90
2022-09-22T07:02:20.284Z,99.90
2022-09-22T07:04:48.310Z,99.90
2022-09-22T07:07:16.565Z,99.90
2022-09-22T07:09:46.200Z,99.90
2022-09-22T07:12:14.413Z,91.20
2022-09-22T07:14:43.889Z,71.80
2022-09-22T07:17:11.910Z,59.10
2022-09-22T07:19:39.897Z,51.00
2022-09-22T07:22:08.227Z,48.20
2022-09-22T07:24:36.218Z,46.00
2022-09-22T07:27:07.054Z,40.80
2022-09-22T07:29:35.169Z,39.20
2022-09-22T07:32:03.981Z,37.30
2022-09-22T07:34:32.593Z,32.80
2022-09-22T07:37:01.027Z,34.70
2022-09-22T07:39:29.043Z,32.10
2022-09-22T07:41:57.075Z,33.40
2022-09-22T07:44:44.748Z,33.10
2022-09-22T07:47:13.135Z,32.30
2022-09-22T07:49:41.187Z,32.40
2022-09-22T07:52:10.060Z,33.20
2022-09-22T07:54:39.776Z,33.40
2022-09-22T07:57:09.688Z,35.00
2022-09-22T07:59:40.564Z,35.40
2022-09-22T08:02:11.731Z,37.60
2022-09-22T08:04:41.137Z,40.40
2022-09-22T08:07:09.114Z,39.20
2022-09-22T08:09:37.152Z,39.30
2022-09-22T08:12:05.410Z,39.00
2022-09-22T08:14:33.736Z,39.70
2022-09-22T08:17:03.114Z,40.40
2022-09-22T08:19:32.088Z,40.80
2022-09-22T08:22:00.173Z,40.50
2022-09-22T08:24:28.111Z,41.10
2022-09-22T08:26:56.541Z,39.30
2022-09-22T08:29:25.378Z,35.50
2022-09-22T08:31:54.370Z,34.30
2022-09-22T08:34:24.037Z,31.10
2022-09-22T08:36:52.166Z,30.00
2022-09-22T08:39:20.663Z,28.90
2022-09-22T08:42:05.748Z,30.10
2022-09-22T08:44:38.781Z,29.80
2022-09-22T08:47:07.308Z,28.80
2022-09-22T08:49:58.530Z,27.80
2022-09-22T08:52:32.559Z,26.50
2022-09-22T08:55:02.513Z,27.00
2022-09-22T08:57:57.009Z,26.50
2022-09-22T09:00:28.777Z,25.10
2022-09-22T09:03:12.030Z,24.80
2022-09-22T09:06:04.541Z,23.90
2022-09-22T09:09:04.044Z,25.30
2022-09-22T09:11:47.470Z,24.20
2022-09-22T09:14:30.394Z,24.70
2022-09-22T09:17:03.297Z,24.30
2022-09-22T09:19:34.728Z,24.10
2022-09-22T09:22:13.653Z,23.60
2022-09-22T09:27:41.717Z,23.50
2022-09-22T09:30:21.973Z,23.20
2022-09-22T09:32:53.079Z,23.40
2022-09-22T09:35:26.684Z,23.10
2022-09-22T09:37:59.239Z,23.50
2022-09-22T09:40:27.769Z,22.50
2022-09-22T09:43:03.309Z,23.00
2022-09-22T09:45:37.808Z,22.60
2022-09-22T09:48:32.119Z,22.80
2022-09-22T09:51:04.076Z,22.50
2022-09-22T09:53:41.171Z,22.40
2022-09-22T09:56:22.944Z,22.30
2022-09-22T09:59:14.855Z,21.60
2022-09-22T10:01:45.378Z,22.00
2022-09-22T10:04:30.755Z,22.00
2022-09-22T10:07:12.832Z,22.10
2022-09-22T10:09:43.082Z,21.70
2022-09-22T10:12:27.392Z,21.60
2022-09-22T10:14:57.154Z,21.70
2022-09-22T10:17:29.422Z,21.80
2022-09-22T10:20:17.056Z,22.00
2022-09-22T10:22:45.693Z,21.20
2022-09-22T10:25:24.160Z,21.80
2022-09-22T10:28:09.340Z,20.90
2022-09-22T10:30:38.377Z,21.40
2022-09-22T10:33:13.739Z,22.40
2022-09-22T10:35:43.304Z,22.10
2022-09-22T10:38:22.840Z,23.00
2022-09-22T10:40:57.431Z,22.60
2022-09-22T10:43:46.415Z,22.00
2022-09-22T10:46:29.784Z,22.20
2022-09-22T10:49:07.298Z,22.20
2022-09-22T10:51:48.088Z,21.60
2022-09-22T10:54:35.313Z,20.90
2022-09-22T10:57:11.095Z,21.20
2022-09-22T10:59:55.362Z,21.70
2022-09-22T11:02:56.345Z,22.00
2022-09-22T11:05:56.375Z,21.30
2022-09-22T11:08:50.226Z,21.60
2022-09-22T11:11:39.954Z,21.00
2022-09-22T11:14:33.314Z,21.30
2022-09-22T11:17:23.699Z,21.00
2022-09-22T11:20:06.879Z,20.70
2022-09-22T11:23:02.059Z,20.80
2022-09-22T11:25:48.543Z,20.90
2022-09-22T11:28:44.182Z,21.60
2022-09-22T11:31:25.633Z,21.70
2022-09-22T11:34:14.925Z,21.50
2022-09-22T11:36:52.006Z,21.20
2022-09-22T11:39:34.879Z,22.10
2022-09-22T11:42:14.140Z,22.80
2022-09-22T11:44:46.455Z,23.10
2022-09-22T11:47:43.739Z,23.00
2022-09-22T11:50:27.705Z,23.00
2022-09-22T11:53:37.574Z,24.40
2022-09-22T11:56:24.319Z,24.60
2022-09-22T11:59:00.360Z,23.60
2022-09-22T12:01:33.471Z,23.70
2022-09-22T12:04:09.409Z,23.50
2022-09-22T12:06:42.629Z,24.70
2022-09-22T12:09:26.851Z,25.30
2022-09-22T12:11:57.194Z,24.80
2022-09-22T12:14:27.471Z,23.90
2022-09-22T12:16:59.710Z,23.50
2022-09-22T12:19:39.273Z,24.00
2022-09-22T12:22:18.500Z,24.80
2022-09-22T12:24:47.976Z,26.20
2022-09-22T12:27:22.625Z,27.80
2022-09-22T12:29:59.340Z,27.90
2022-09-22T12:32:33.177Z,27.00
2022-09-22T12:35:03.098Z,25.70
2022-09-22T12:37:33.222Z,25.40
2022-09-22T12:40:08.228Z,26.40
2022-09-22T12:42:39.346Z,27.50
2022-09-22T12:45:17.902Z,26.70
2022-09-22T12:47:50.888Z,25.50
2022-09-22T12:50:42.105Z,24.80
2022-09-22T12:53:26.212Z,24.40
2022-09-22T12:55:55.710Z,24.80
2022-09-22T12:58:43.372Z,25.50
2022-09-22T13:01:34.497Z,27.00
2022-09-22T13:04:20.608Z,28.40
2022-09-22T13:06:58.734Z,29.40
2022-09-22T13:09:30.199Z,29.80
2022-09-22T13:12:28.106Z,29.20
2022-09-22T13:15:01.138Z,28.50
2022-09-22T13:17:37.997Z,26.90
2022-09-22T13:20:21.737Z,26.30
2022-09-22T13:22:53.290Z,25.80
2022-09-22T13:25:27.833Z,26.20
2022-09-22T13:28:07.680Z,26.40
2022-09-22T13:30:36.782Z,26.70
2022-09-22T13:33:05.249Z,27.20
2022-09-22T13:35:38.149Z,27.90
2022-09-22T13:38:07.836Z,28.20
2022-09-22T13:40:35.966Z,29.00
2022-09-22T13:43:09.766Z,29.60
2022-09-22T13:45:40.031Z,29.70
2022-09-22T13:48:11.513Z,31.20
2022-09-22T13:50:43.062Z,32.70
2022-09-22T13:53:16.593Z,33.40
2022-09-22T13:55:44.691Z,33.90
2022-09-22T13:58:16.445Z,33.70
2022-09-22T14:01:12.762Z,34.80
2022-09-22T14:03:41.394Z,34.40
2022-09-22T14:06:14.326Z,35.20
2022-09-22T14:08:45.156Z,35.60
2022-09-22T14:11:16.282Z,35.70
2022-09-22T14:13:57.782Z,35.30
2022-09-22T14:16:30.693Z,35.10
2022-09-22T14:19:04.273Z,36.00
2022-09-22T14:21:33.483Z,36.20
2022-09-22T14:24:03.518Z,36.40
2022-09-22T14:26:38.993Z,37.70
2022-09-22T14:29:16.380Z,38.10
2022-09-22T14:31:48.311Z,38.80
2022-09-22T14:34:23.088Z,39.20
2022-09-22T14:36:53.503Z,39.10
2022-09-22T14:39:31.327Z,39.10
2022-09-22T14:42:08.954Z,39.80
2022-09-22T14:44:43.424Z,39.80
2022-09-22T14:47:20.169Z,40.50
2022-09-22T14:49:48.799Z,40.30
2022-09-22T14:52:26.784Z,41.90
2022-09-22T14:54:58.658Z,41.90
2022-09-22T14:57:28.051Z,42.40
2022-09-22T15:00:17.022Z,42.40
2022-09-22T15:02:50.933Z,42.80
2022-09-22T15:05:29.733Z,43.50
2022-09-22T15:07:59.573Z,42.90
2022-09-22T15:10:30.316Z,42.80
2022-09-22T15:13:19.698Z,43.10
2022-09-22T15:15:49.440Z,43.00
2022-09-22T15:18:19.454Z,43.20
2022-09-22T15:20:49.980Z,43.10
2022-09-22T15:23:22.989Z,43.40
2022-09-22T15:25:53.856Z,43.60
2022-09-22T15:28:23.868Z,43.60
2022-09-22T15:30:53.372Z,44.30
2022-09-22T15:36:05.424Z,44.30
2022-09-22T15:38:35.448Z,44.60
2022-09-22T15:41:03.474Z,44.40
2022-09-22T15:43:32.171Z,44.50
2022-09-22T15:46:01.820Z,44.70
2022-09-22T15:48:33.200Z,46.40
2022-09-22T15:51:04.816Z,46.50
2022-09-22T15:53:33.726Z,46.00
2022-09-22T15:56:05.172Z,46.10
2022-09-22T15:58:37.191Z,46.10
2022-09-22T16:01:05.721Z,46.40
2022-09-22T16:03:40.226Z,46.20
2022-09-22T16:06:15.237Z,45.80
2022-09-22T16:08:46.860Z,46.40
2022-09-22T16:11:16.885Z,46.60
2022-09-22T16:13:45.486Z,46.30
2022-09-22T16:16:13.589Z,46.70
2022-09-22T16:18:42.027Z,47.90
2022-09-22T16:21:20.677Z,46.90
2022-09-22T16:23:48.783Z,47.20
2022-09-22T16:26:17.128Z,47.50
2022-09-22T16:28:45.390Z,47.80
2022-09-22T16:31:14.580Z,47.80
2022-09-22T16:33:43.834Z,48.20
2022-09-22T16:36:12.079Z,48.90
2022-09-22T16:38:41.783Z,48.80
2022-09-22T16:41:19.624Z,50.70
2022-09-22T16:43:47.966Z,51.50
2022-09-22T16:46:29.911Z,51.50
2022-09-22T16:49:00.475Z,53.80
2022-09-22T16:51:29.573Z,54.20
2022-09-22T16:53:59.041Z,53.90
2022-09-22T16:56:29.373Z,54.60
2022-09-22T16:58:57.806Z,54.70
2022-09-22T17:01:26.025Z,56.60
2022-09-22T17:03:54.431Z,56.70
2022-09-22T17:06:25.270Z,56.40
2022-09-22T17:08:55.047Z,57.00
2022-09-22T17:11:29.630Z,58.90
2022-09-22T17:13:59.859Z,58.10
2022-09-22T17:16:30.085Z,59.60
2022-09-22T17:19:00.232Z,59.80
2022-09-22T17:21:33.474Z,60.30
2022-09-22T17:24:02.911Z,60.50
2022-09-22T17:26:34.589Z,61.50
2022-09-22T17:29:03.362Z,62.10
2022-09-22T17:31:32.350Z,61.40
2022-09-22T17:34:00.575Z,63.00
2022-09-22T17:36:30.289Z,63.10
2022-09-22T17:39:01.424Z,65.30
2022-09-22T17:41:33.024Z,63.40
2022-09-22T17:44:03.217Z,66.00
2022-09-22T17:46:33.715Z,67.50
2022-09-22T17:49:19.488Z,65.60
2022-09-22T17:52:06.718Z,68.50
2022-09-22T17:54:53.938Z,67.90
2022-09-22T17:57:25.643Z,69.80
2022-09-22T17:59:55.092Z,71.30
2022-09-22T18:02:24.460Z,73.60
2022-09-22T18:04:52.761Z,75.40
2022-09-22T18:07:22.193Z,76.70
2022-09-22T18:09:51.511Z,77.20
2022-09-22T18:12:21.920Z,81.60
2022-09-22T18:14:53.064Z,81.00
2022-09-22T18:17:23.973Z,82.50
2022-09-22T18:19:55.118Z,83.10
2022-09-22T18:22:24.779Z,87.00
2022-09-22T18:24:55.603Z,86.10
2022-09-22T18:27:26.946Z,85.80
2022-09-22T18:29:58.706Z,87.60
2022-09-22T18:32:27.644Z,88.10
2022-09-22T18:34:55.960Z,88.10
2022-09-22T18:37:25.452Z,88.70
2022-09-22T18:39:53.613Z,90.00
2022-09-22T18:42:24.077Z,90.80
2022-09-22T18:44:53.090Z,91.70
2022-09-22T18:47:24.097Z,92.30
2022-09-22T18:49:52.519Z,92.40
2022-09-22T18:52:23.987Z,92.50
2022-09-22T18:54:54.381Z,92.90
2022-09-22T18:57:24.610Z,93.30
2022-09-22T18:59:53.994Z,94.10
2022-09-22T19:02:23.835Z,95.00
2022-09-22T19:04:52.319Z,95.40
2022-09-22T19:07:42.610Z,95.60
2022-09-22T19:10:12.574Z,95.90
2022-09-22T19:12:40.781Z,96.40
2022-09-22T19:15:13.523Z,96.80
2022-09-22T19:17:45.061Z,97.20
2022-09-22T19:20:15.068Z,98.10
2022-09-22T19:22:43.117Z,98.00
2022-09-22T19:25:13.125Z,98.30
2022-09-22T19:27:41.251Z,98.80
2022-09-22T19:30:10.937Z,99.20
2022-09-22T19:32:39.732Z,99.90
2022-09-22T19:35:10.323Z,99.90
2022-09-22T19:37:39.007Z,99.90
2022-09-22T19:40:09.309Z,99.90
2022-09-22T19:42:40.356Z,99.90
2022-09-22T19:45:09.275Z,99.90
2022-09-22T19:47:37.443Z,99.90
2022-09-22T19:50:07.870Z,99.90
2022-09-22T19:52:38.354Z,99.90
2022-09-22T19:55:07.808Z,99.90
2022-09-22T19:57:41.264Z,99.90
2022-09-22T20:00:11.819Z,99.90
2022-09-22T20:02:40.076Z,99.90
2022-09-22T20:05:19.188Z,99.90
2022-09-22T20:07:48.675Z,99.90
2022-09-22T20:10:17.380Z,99.90
2022-09-22T20:12:46.014Z,99.90
2022-09-22T20:15:15.155Z,99.90
2022-09-22T20:17:46.287Z,99.90
2022-09-22T20:20:15.839Z,99.90
2022-09-22T20:22:45.446Z,99.90
2022-09-22T20:25:23.841Z,99.90
2022-09-22T20:27:52.395Z,99.90
2022-09-22T20:30:21.078Z,99.90
2022-09-22T20:32:50.553Z,99.90
2022-09-22T20:35:21.750Z,99.90
2022-09-22T20:37:51.732Z,99.90
2022-09-22T20:40:23.252Z,99.90
2022-09-22T20:42:55.273Z,99.90
2022-09-22T20:45:24.753Z,99.90
2022-09-22T20:47:53.060Z,99.90
2022-09-22T20:50:22.670Z,99.90
2022-09-22T20:52:51.533Z,99.90
2022-09-22T20:55:23.599Z,99.90
2022-09-22T20:57:52.569Z,99.90
2022-09-22T21:00:20.998Z,99.90
2022-09-22T21:02:50.313Z,99.90
2022-09-22T21:05:18.676Z,99.90
2022-09-22T21:07:47.009Z,99.90
2022-09-22T21:10:33.063Z,99.90
2022-09-22T21:13:04.158Z,99.90
2022-09-22T21:15:33.008Z,99.90
2022-09-22T21:18:01.460Z,99.90
2022-09-22T21:20:29.957Z,99.90
2022-09-22T21:22:58.388Z,99.90
2022-09-22T21:25:26.700Z,99.90
2022-09-22T21:27:54.952Z,99.90
2022-09-22T21:30:24.578Z,99.90
2022-09-22T21:32:53.082Z,99.90
2022-09-22T21:35:21.473Z,99.90
2022-09-22T21:37:49.686Z,99.90
2022-09-22T21:40:18.887Z,99.90
2022-09-22T21:42:47.158Z,99.90
2022-09-22T21:45:15.801Z,99.90
2022-09-22T21:47:45.547Z,99.90
2022-09-22T21:50:15.108Z,99.90
2022-09-22T21:52:45.655Z,99.90
2022-09-22T21:55:13.958Z,99.90
2022-09-22T21:57:42.388Z,99.90
2022-09-22T22:00:11.670Z,99.90
2022-09-22T22:02:56.249Z,99.90
2022-09-22T22:05:27.414Z,99.90
2022-09-22T22:07:55.380Z,99.90
2022-09-22T22:10:24.378Z,99.90
2022-09-22T22:12:52.436Z,99.90
2022-09-22T22:15:20.488Z,99.90
2022-09-22T22:17:48.652Z,99.90
2022-09-22T22:20:16.799Z,99.90
2022-09-22T22:22:46.769Z,99.90
2022-09-22T22:25:17.512Z,99.90
2022-09-22T22:27:45.751Z,99.90
2022-09-22T22:30:14.314Z,99.90
2022-09-22T22:32:43.151Z,99.90
2022-09-22T22:35:12.326Z,99.90
2022-09-22T22:37:40.369Z,99.90
2022-09-22T22:40:10.553Z,99.90
2022-09-22T22:42:38.599Z,99.90
2022-09-22T22:45:07.386Z,99.90
2022-09-22T22:47:35.473Z,99.90
2022-09-22T22:50:03.528Z,99.90
2022-09-22T22:52:31.672Z,99.90
2022-09-22T22:54:59.627Z,99.90
2022-09-22T22:57:29.854Z,99.90
2022-09-22T22:59:58.131Z,99.90
2022-09-22T23:02:26.406Z,99.90
2022-09-22T23:04:54.587Z,99.90
2022-09-22T23:07:22.556Z,99.90
2022-09-22T23:10:06.237Z,99.90
2022-09-22T23:12:37.135Z,99.90
2022-09-22T23:15:06.079Z,99.90
2022-09-22T23:17:34.293Z,99.90
2022-09-22T23:20:04.271Z,99.90
2022-09-22T23:22:32.505Z,99.90
2022-09-22T23:25:00.660Z,99.90
2022-09-22T23:27:29.355Z,99.90
2022-09-22T23:29:58.971Z,99.90
2022-09-22T23:32:27.999Z,99.90
2022-09-22T23:34:55.977Z,99.90
2022-09-22T23:37:25.936Z,99.90
2022-09-22T23:39:55.055Z,99.90
2022-09-22T23:42:24.231Z,99.90
2022-09-22T23:44:52.479Z,99.90
2022-09-22T23:47:21.845Z,99.90
2022-09-22T23:49:49.796Z,99.90
2022-09-22T23:52:18.195Z,99.90
2022-09-22T23:54:46.185Z,99.90
2022-09-22T23:57:14.784Z,99.90
2022-09-22T23:59:42.920Z,99.90
